sensor_id;sensor_type;location;lat;lon;timestamp;P1;durP1;ratioP1;P2;durP2;ratioP2
37451;SDS011;23314;51.114;6.900;2022-10-31T00:00:28;11.33;;;9.13;;
37451;SDS011;23314;51.114;6.900;2022-10-31T00:02:53;15.20;;;8.50;;
37451;SDS011;23314;51.114;6.900;2022-10-31T00:05:18;16.47;;;9.73;;
37451;SDS011;23314;51.114;6.900;2022-10-31T00:07:44;14.20;;;9.07;;
37451;SDS011;23314;51.114;6.900;2022-10-31T00:10:09;17.37;;;9.07;;
37451;SDS011;23314;51.114;6.900;2022-10-31T00:12:34;15.07;;;9.70;;
37451;SDS011;23314;51.114;6.900;2022-10-31T00:15:00;14.30;;;8.77;;
37451;SDS011;23314;51.114;6.900;2022-10-31T00:17:25;16.50;;;8.60;;
37451;SDS011;23314;51.114;6.900;2022-10-31T00:19:51;15.00;;;9.00;;
37451;SDS011;23314;51.114;6.900;2022-10-31T00:22:16;13.33;;;8.97;;
37451;SDS011;23314;51.114;6.900;2022-10-31T00:24:42;16.17;;;9.23;;
37451;SDS011;23314;51.114;6.900;2022-10-31T00:27:07;11.83;;;8.80;;
37451;SDS011;23314;51.114;6.900;2022-10-31T00:29:32;13.77;;;9.27;;
37451;SDS011;23314;51.114;6.900;2022-10-31T00:31:58;16.83;;;9.60;;
37451;SDS011;23314;51.114;6.900;2022-10-31T00:34:23;14.43;;;9.43;;
37451;SDS011;23314;51.114;6.900;2022-10-31T00:36:48;15.87;;;9.10;;
37451;SDS011;23314;51.114;6.900;2022-10-31T00:39:14;14.80;;;9.53;;
37451;SDS011;23314;51.114;6.900;2022-10-31T00:41:39;15.73;;;9.47;;
37451;SDS011;23314;51.114;6.900;2022-10-31T00:44:05;14.00;;;9.77;;
37451;SDS011;23314;51.114;6.900;2022-10-31T00:46:30;14.60;;;10.07;;
37451;SDS011;23314;51.114;6.900;2022-10-31T00:48:55;14.77;;;9.20;;
37451;SDS011;23314;51.114;6.900;2022-10-31T00:51:21;11.80;;;9.27;;
37451;SDS011;23314;51.114;6.900;2022-10-31T00:53:46;16.90;;;10.00;;
37451;SDS011;23314;51.114;6.900;2022-10-31T00:56:11;17.33;;;10.07;;
37451;SDS011;23314;51.114;6.900;2022-10-31T00:58:37;24.53;;;10.23;;
37451;SDS011;23314;51.114;6.900;2022-10-31T01:01:02;15.40;;;9.10;;
37451;SDS011;23314;51.114;6.900;2022-10-31T01:03:30;17.57;;;9.40;;
37451;SDS011;23314;51.114;6.900;2022-10-31T01:08:23;19.63;;;9.40;;
37451;SDS011;23314;51.114;6.900;2022-10-31T01:13:49;14.67;;;8.33;;
37451;SDS011;23314;51.114;6.900;2022-10-31T01:16:17;13.60;;;8.20;;
37451;SDS011;23314;51.114;6.900;2022-10-31T01:18:43;13.03;;;9.30;;
37451;SDS011;23314;51.114;6.900;2022-10-31T01:21:13;12.97;;;8.80;;
37451;SDS011;23314;51.114;6.900;2022-10-31T01:23:41;13.47;;;7.83;;
37451;SDS011;23314;51.114;6.900;2022-10-31T01:28:42;16.27;;;8.37;;
37451;SDS011;23314;51.114;6.900;2022-10-31T01:31:10;13.63;;;8.60;;
37451;SDS011;23314;51.114;6.900;2022-10-31T01:33:36;16.00;;;8.60;;
37451;SDS011;23314;51.114;6.900;2022-10-31T01:36:10;15.33;;;9.80;;
37451;SDS011;23314;51.114;6.900;2022-10-31T01:38:48;14.63;;;9.47;;
37451;SDS011;23314;51.114;6.900;2022-10-31T01:41:15;12.17;;;9.13;;
37451;SDS011;23314;51.114;6.900;2022-10-31T01:46:11;13.57;;;8.73;;
37451;SDS011;23314;51.114;6.900;2022-10-31T01:48:37;17.13;;;8.83;;
37451;SDS011;23314;51.114;6.900;2022-10-31T01:51:04;15.57;;;9.10;;
37451;SDS011;23314;51.114;6.900;2022-10-31T01:53:31;17.17;;;9.33;;
37451;SDS011;23314;51.114;6.900;2022-10-31T01:55:56;13.70;;;9.00;;
37451;SDS011;23314;51.114;6.900;2022-10-31T01:58:24;14.60;;;8.83;;
37451;SDS011;23314;51.114;6.900;2022-10-31T02:00:54;15.60;;;8.93;;
37451;SDS011;23314;51.114;6.900;2022-10-31T02:03:23;15.90;;;8.87;;
37451;SDS011;23314;51.114;6.900;2022-10-31T02:05:50;15.67;;;9.13;;
37451;SDS011;23314;51.114;6.900;2022-10-31T02:08:31;15.13;;;9.33;;
37451;SDS011;23314;51.114;6.900;2022-10-31T02:10:59;17.53;;;9.37;;
37451;SDS011;23314;51.114;6.900;2022-10-31T02:13:27;14.10;;;9.30;;
37451;SDS011;23314;51.114;6.900;2022-10-31T02:15:54;13.43;;;8.80;;
37451;SDS011;23314;51.114;6.900;2022-10-31T02:18:22;18.70;;;9.60;;
37451;SDS011;23314;51.114;6.900;2022-10-31T02:29:10;15.83;;;9.70;;
37451;SDS011;23314;51.114;6.900;2022-10-31T02:39:54;15.77;;;9.07;;
37451;SDS011;23314;51.114;6.900;2022-10-31T02:42:33;13.23;;;9.63;;
37451;SDS011;23314;51.114;6.900;2022-10-31T02:45:13;16.57;;;9.80;;
37451;SDS011;23314;51.114;6.900;2022-10-31T02:47:44;11.03;;;8.50;;
37451;SDS011;23314;51.114;6.900;2022-10-31T02:50:15;16.67;;;10.77;;
37451;SDS011;23314;51.114;6.900;2022-10-31T02:52:44;15.60;;;9.33;;
37451;SDS011;23314;51.114;6.900;2022-10-31T02:55:41;15.37;;;9.40;;
37451;SDS011;23314;51.114;6.900;2022-10-31T02:58:00;18.53;;;10.03;;
37451;SDS011;23314;51.114;6.900;2022-10-31T03:00:30;16.17;;;10.50;;
37451;SDS011;23314;51.114;6.900;2022-10-31T03:11:07;15.00;;;9.73;;
37451;SDS011;23314;51.114;6.900;2022-10-31T03:13:35;14.83;;;9.50;;
37451;SDS011;23314;51.114;6.900;2022-10-31T03:16:11;15.30;;;10.57;;
37451;SDS011;23314;51.114;6.900;2022-10-31T03:18:47;20.17;;;9.47;;
37451;SDS011;23314;51.114;6.900;2022-10-31T03:21:32;19.23;;;10.20;;
37451;SDS011;23314;51.114;6.900;2022-10-31T03:24:19;18.10;;;9.90;;
37451;SDS011;23314;51.114;6.900;2022-10-31T03:26:48;15.13;;;9.40;;
37451;SDS011;23314;51.114;6.900;2022-10-31T03:29:16;14.23;;;9.20;;
37451;SDS011;23314;51.114;6.900;2022-10-31T03:31:56;20.67;;;8.87;;
37451;SDS011;23314;51.114;6.900;2022-10-31T03:34:24;14.00;;;9.33;;
37451;SDS011;23314;51.114;6.900;2022-10-31T03:36:50;15.50;;;9.03;;
37451;SDS011;23314;51.114;6.900;2022-10-31T03:39:20;13.87;;;9.27;;
37451;SDS011;23314;51.114;6.900;2022-10-31T03:41:53;13.60;;;8.97;;
37451;SDS011;23314;51.114;6.900;2022-10-31T03:44:21;13.87;;;9.47;;
37451;SDS011;23314;51.114;6.900;2022-10-31T03:46:48;12.63;;;8.37;;
37451;SDS011;23314;51.114;6.900;2022-10-31T03:49:14;16.83;;;8.93;;
37451;SDS011;23314;51.114;6.900;2022-10-31T03:51:45;15.17;;;7.97;;
37451;SDS011;23314;51.114;6.900;2022-10-31T03:54:20;9.77;;;7.73;;
37451;SDS011;23314;51.114;6.900;2022-10-31T03:56:52;15.83;;;8.90;;
37451;SDS011;23314;51.114;6.900;2022-10-31T03:59:23;17.37;;;9.00;;
37451;SDS011;23314;51.114;6.900;2022-10-31T04:01:53;18.03;;;9.20;;
37451;SDS011;23314;51.114;6.900;2022-10-31T04:04:24;14.63;;;8.73;;
37451;SDS011;23314;51.114;6.900;2022-10-31T04:06:51;15.30;;;9.30;;
37451;SDS011;23314;51.114;6.900;2022-10-31T04:09:19;12.60;;;8.20;;
37451;SDS011;23314;51.114;6.900;2022-10-31T04:11:47;13.33;;;9.07;;
37451;SDS011;23314;51.114;6.900;2022-10-31T04:14:15;17.23;;;8.37;;
37451;SDS011;23314;51.114;6.900;2022-10-31T04:16:41;13.97;;;8.97;;
37451;SDS011;23314;51.114;6.900;2022-10-31T04:19:08;14.20;;;8.83;;
37451;SDS011;23314;51.114;6.900;2022-10-31T04:21:35;12.47;;;8.67;;
37451;SDS011;23314;51.114;6.900;2022-10-31T04:24:00;16.77;;;8.80;;
37451;SDS011;23314;51.114;6.900;2022-10-31T04:26:25;13.63;;;8.80;;
37451;SDS011;23314;51.114;6.900;2022-10-31T04:28:51;18.43;;;9.30;;
37451;SDS011;23314;51.114;6.900;2022-10-31T04:31:16;17.37;;;8.97;;
37451;SDS011;23314;51.114;6.900;2022-10-31T04:33:42;13.63;;;8.93;;
37451;SDS011;23314;51.114;6.900;2022-10-31T04:36:08;13.97;;;9.30;;
37451;SDS011;23314;51.114;6.900;2022-10-31T04:38:33;16.63;;;9.13;;
37451;SDS011;23314;51.114;6.900;2022-10-31T04:40:59;13.20;;;8.93;;
37451;SDS011;23314;51.114;6.900;2022-10-31T04:43:24;20.10;;;9.90;;
37451;SDS011;23314;51.114;6.900;2022-10-31T04:45:50;17.10;;;10.17;;
37451;SDS011;23314;51.114;6.900;2022-10-31T04:48:15;19.70;;;9.90;;
37451;SDS011;23314;51.114;6.900;2022-10-31T04:50:41;18.23;;;10.37;;
37451;SDS011;23314;51.114;6.900;2022-10-31T04:53:06;17.30;;;9.97;;
37451;SDS011;23314;51.114;6.900;2022-10-31T04:55:32;15.03;;;10.50;;
37451;SDS011;23314;51.114;6.900;2022-10-31T04:57:57;16.47;;;10.20;;
37451;SDS011;23314;51.114;6.900;2022-10-31T05:00:22;17.73;;;10.87;;
37451;SDS011;23314;51.114;6.900;2022-10-31T05:02:52;19.77;;;10.07;;
37451;SDS011;23314;51.114;6.900;2022-10-31T05:05:20;14.23;;;9.77;;
37451;SDS011;23314;51.114;6.900;2022-10-31T05:07:47;14.50;;;10.20;;
37451;SDS011;23314;51.114;6.900;2022-10-31T05:10:15;19.67;;;10.13;;
37451;SDS011;23314;51.114;6.900;2022-10-31T05:12:45;15.93;;;10.13;;
37451;SDS011;23314;51.114;6.900;2022-10-31T05:15:12;15.40;;;10.57;;
37451;SDS011;23314;51.114;6.900;2022-10-31T05:17:38;18.30;;;10.13;;
37451;SDS011;23314;51.114;6.900;2022-10-31T05:20:03;15.80;;;10.67;;
37451;SDS011;23314;51.114;6.900;2022-10-31T05:22:29;18.73;;;10.83;;
37451;SDS011;23314;51.114;6.900;2022-10-31T05:24:54;19.40;;;11.10;;
37451;SDS011;23314;51.114;6.900;2022-10-31T05:27:20;15.00;;;10.10;;
37451;SDS011;23314;51.114;6.900;2022-10-31T05:29:46;15.30;;;11.23;;
37451;SDS011;23314;51.114;6.900;2022-10-31T05:32:11;15.33;;;10.63;;
37451;SDS011;23314;51.114;6.900;2022-10-31T05:34:36;17.40;;;10.57;;
37451;SDS011;23314;51.114;6.900;2022-10-31T05:37:02;17.60;;;10.40;;
37451;SDS011;23314;51.114;6.900;2022-10-31T05:39:27;13.77;;;9.47;;
37451;SDS011;23314;51.114;6.900;2022-10-31T05:41:52;26.60;;;10.50;;
37451;SDS011;23314;51.114;6.900;2022-10-31T05:44:18;20.40;;;11.10;;
37451;SDS011;23314;51.114;6.900;2022-10-31T05:46:43;20.17;;;10.00;;
37451;SDS011;23314;51.114;6.900;2022-10-31T05:49:08;18.73;;;10.93;;
37451;SDS011;23314;51.114;6.900;2022-10-31T05:51:35;17.77;;;10.60;;
37451;SDS011;23314;51.114;6.900;2022-10-31T05:54:06;24.63;;;11.43;;
37451;SDS011;23314;51.114;6.900;2022-10-31T05:56:31;32.93;;;12.43;;
37451;SDS011;23314;51.114;6.900;2022-10-31T05:58:57;27.10;;;12.60;;
37451;SDS011;23314;51.114;6.900;2022-10-31T06:01:22;28.20;;;12.10;;
37451;SDS011;23314;51.114;6.900;2022-10-31T06:03:47;20.50;;;11.00;;
37451;SDS011;23314;51.114;6.900;2022-10-31T06:06:13;23.90;;;11.83;;
37451;SDS011;23314;51.114;6.900;2022-10-31T06:08:38;29.17;;;11.77;;
37451;SDS011;23314;51.114;6.900;2022-10-31T06:11:04;16.70;;;11.53;;
37451;SDS011;23314;51.114;6.900;2022-10-31T06:13:29;18.70;;;11.07;;
37451;SDS011;23314;51.114;6.900;2022-10-31T06:15:55;23.33;;;12.10;;
37451;SDS011;23314;51.114;6.900;2022-10-31T06:18:20;25.40;;;11.73;;
37451;SDS011;23314;51.114;6.900;2022-10-31T06:20:45;33.70;;;13.40;;
37451;SDS011;23314;51.114;6.900;2022-10-31T06:23:11;32.27;;;13.00;;
37451;SDS011;23314;51.114;6.900;2022-10-31T06:25:36;26.37;;;12.07;;
37451;SDS011;23314;51.114;6.900;2022-10-31T06:28:01;28.57;;;13.30;;
37451;SDS011;23314;51.114;6.900;2022-10-31T06:30:27;24.10;;;12.10;;
37451;SDS011;23314;51.114;6.900;2022-10-31T06:32:52;19.73;;;13.57;;
37451;SDS011;23314;51.114;6.900;2022-10-31T06:35:18;19.73;;;13.20;;
37451;SDS011;23314;51.114;6.900;2022-10-31T06:37:50;23.47;;;12.87;;
37451;SDS011;23314;51.114;6.900;2022-10-31T06:40:16;23.63;;;12.10;;
37451;SDS011;23314;51.114;6.900;2022-10-31T06:42:41;22.70;;;12.03;;
37451;SDS011;23314;51.114;6.900;2022-10-31T06:45:07;22.30;;;12.33;;
37451;SDS011;23314;51.114;6.900;2022-10-31T06:47:32;23.50;;;12.33;;
37451;SDS011;23314;51.114;6.900;2022-10-31T06:49:57;28.27;;;13.23;;
37451;SDS011;23314;51.114;6.900;2022-10-31T06:52:23;26.43;;;11.77;;
37451;SDS011;23314;51.114;6.900;2022-10-31T06:54:48;25.67;;;12.80;;
37451;SDS011;23314;51.114;6.900;2022-10-31T06:57:13;23.50;;;13.20;;
37451;SDS011;23314;51.114;6.900;2022-10-31T06:59:39;31.57;;;12.83;;
37451;SDS011;23314;51.114;6.900;2022-10-31T07:02:04;27.67;;;11.97;;
37451;SDS011;23314;51.114;6.900;2022-10-31T07:04:30;27.27;;;12.23;;
37451;SDS011;23314;51.114;6.900;2022-10-31T07:06:55;22.00;;;12.00;;
37451;SDS011;23314;51.114;6.900;2022-10-31T07:09:21;21.27;;;10.87;;
37451;SDS011;23314;51.114;6.900;2022-10-31T07:11:46;21.07;;;11.90;;
37451;SDS011;23314;51.114;6.900;2022-10-31T07:14:12;22.03;;;11.87;;
37451;SDS011;23314;51.114;6.900;2022-10-31T07:16:37;19.50;;;10.53;;
37451;SDS011;23314;51.114;6.900;2022-10-31T07:19:03;17.47;;;12.07;;
37451;SDS011;23314;51.114;6.900;2022-10-31T07:21:28;22.30;;;11.87;;
37451;SDS011;23314;51.114;6.900;2022-10-31T07:23:54;19.90;;;11.67;;
37451;SDS011;23314;51.114;6.900;2022-10-31T07:26:19;17.10;;;11.27;;
37451;SDS011;23314;51.114;6.900;2022-10-31T07:28:48;19.17;;;12.00;;
37451;SDS011;23314;51.114;6.900;2022-10-31T07:31:13;18.10;;;11.60;;
37451;SDS011;23314;51.114;6.900;2022-10-31T07:33:39;17.80;;;11.13;;
37451;SDS011;23314;51.114;6.900;2022-10-31T07:36:04;20.13;;;11.00;;
37451;SDS011;23314;51.114;6.900;2022-10-31T07:38:30;20.10;;;11.50;;
37451;SDS011;23314;51.114;6.900;2022-10-31T07:40:56;20.37;;;11.90;;
37451;SDS011;23314;51.114;6.900;2022-10-31T07:43:21;22.60;;;12.00;;
37451;SDS011;23314;51.114;6.900;2022-10-31T07:45:51;25.97;;;12.90;;
37451;SDS011;23314;51.114;6.900;2022-10-31T07:48:17;19.33;;;11.37;;
37451;SDS011;23314;51.114;6.900;2022-10-31T07:50:43;19.10;;;11.73;;
37451;SDS011;23314;51.114;6.900;2022-10-31T07:53:11;25.27;;;12.03;;
37451;SDS011;23314;51.114;6.900;2022-10-31T07:55:38;22.63;;;11.50;;
37451;SDS011;23314;51.114;6.900;2022-10-31T07:58:04;20.50;;;11.70;;
37451;SDS011;23314;51.114;6.900;2022-10-31T08:00:32;18.87;;;11.53;;
37451;SDS011;23314;51.114;6.900;2022-10-31T08:03:02;16.83;;;11.10;;
37451;SDS011;23314;51.114;6.900;2022-10-31T08:05:29;19.57;;;11.77;;
37451;SDS011;23314;51.114;6.900;2022-10-31T08:07:56;22.73;;;12.30;;
37451;SDS011;23314;51.114;6.900;2022-10-31T08:10:22;20.53;;;11.37;;
37451;SDS011;23314;51.114;6.900;2022-10-31T08:12:54;17.03;;;11.50;;
37451;SDS011;23314;51.114;6.900;2022-10-31T08:15:20;15.50;;;10.97;;
37451;SDS011;23314;51.114;6.900;2022-10-31T08:17:46;22.23;;;11.13;;
37451;SDS011;23314;51.114;6.900;2022-10-31T08:20:12;18.00;;;12.40;;
37451;SDS011;23314;51.114;6.900;2022-10-31T08:22:37;21.63;;;11.30;;
37451;SDS011;23314;51.114;6.900;2022-10-31T08:25:02;19.00;;;12.43;;
37451;SDS011;23314;51.114;6.900;2022-10-31T08:27:28;23.83;;;12.13;;
37451;SDS011;23314;51.114;6.900;2022-10-31T08:29:53;18.83;;;11.83;;
37451;SDS011;23314;51.114;6.900;2022-10-31T08:32:19;21.90;;;12.27;;
37451;SDS011;23314;51.114;6.900;2022-10-31T08:34:44;22.53;;;11.43;;
37451;SDS011;23314;51.114;6.900;2022-10-31T08:37:09;20.47;;;11.97;;
37451;SDS011;23314;51.114;6.900;2022-10-31T08:39:35;18.40;;;11.87;;
37451;SDS011;23314;51.114;6.900;2022-10-31T08:42:00;20.70;;;12.30;;
37451;SDS011;23314;51.114;6.900;2022-10-31T08:44:26;25.87;;;11.67;;
37451;SDS011;23314;51.114;6.900;2022-10-31T08:46:51;19.90;;;11.40;;
37451;SDS011;23314;51.114;6.900;2022-10-31T08:49:16;26.13;;;11.17;;
37451;SDS011;23314;51.114;6.900;2022-10-31T08:51:42;19.67;;;10.87;;
37451;SDS011;23314;51.114;6.900;2022-10-31T08:54:07;18.50;;;11.27;;
37451;SDS011;23314;51.114;6.900;2022-10-31T08:56:32;16.13;;;10.80;;
37451;SDS011;23314;51.114;6.900;2022-10-31T08:58:58;17.83;;;11.63;;
37451;SDS011;23314;51.114;6.900;2022-10-31T09:01:23;21.47;;;11.30;;
37451;SDS011;23314;51.114;6.900;2022-10-31T09:03:49;20.27;;;12.30;;
37451;SDS011;23314;51.114;6.900;2022-10-31T09:06:14;20.97;;;12.00;;
37451;SDS011;23314;51.114;6.900;2022-10-31T09:08:40;17.67;;;11.50;;
37451;SDS011;23314;51.114;6.900;2022-10-31T09:11:05;29.30;;;12.60;;
37451;SDS011;23314;51.114;6.900;2022-10-31T09:13:31;22.33;;;12.37;;
37451;SDS011;23314;51.114;6.900;2022-10-31T09:15:57;18.67;;;11.67;;
37451;SDS011;23314;51.114;6.900;2022-10-31T09:18:23;21.17;;;11.67;;
37451;SDS011;23314;51.114;6.900;2022-10-31T09:20:49;16.83;;;11.70;;
37451;SDS011;23314;51.114;6.900;2022-10-31T09:23:19;21.33;;;12.77;;
37451;SDS011;23314;51.114;6.900;2022-10-31T09:25:46;18.03;;;11.73;;
37451;SDS011;23314;51.114;6.900;2022-10-31T09:28:16;18.17;;;11.17;;
37451;SDS011;23314;51.114;6.900;2022-10-31T09:30:45;16.23;;;12.00;;
37451;SDS011;23314;51.114;6.900;2022-10-31T09:33:15;16.40;;;13.40;;
37451;SDS011;23314;51.114;6.900;2022-10-31T09:35:41;20.33;;;13.60;;
37451;SDS011;23314;51.114;6.900;2022-10-31T09:38:08;24.40;;;12.60;;
37451;SDS011;23314;51.114;6.900;2022-10-31T09:40:42;22.07;;;11.80;;
37451;SDS011;23314;51.114;6.900;2022-10-31T09:48:48;17.23;;;11.43;;
37451;SDS011;23314;51.114;6.900;2022-10-31T09:56:33;21.70;;;11.90;;
37451;SDS011;23314;51.114;6.900;2022-10-31T09:59:00;20.47;;;11.80;;
37451;SDS011;23314;51.114;6.900;2022-10-31T10:07:05;17.47;;;11.77;;
37451;SDS011;23314;51.114;6.900;2022-10-31T10:09:39;23.03;;;12.50;;
37451;SDS011;23314;51.114;6.900;2022-10-31T10:17:36;22.40;;;11.53;;
37451;SDS011;23314;51.114;6.900;2022-10-31T10:20:14;15.93;;;11.13;;
37451;SDS011;23314;51.114;6.900;2022-10-31T10:25:45;19.20;;;10.60;;
37451;SDS011;23314;51.114;6.900;2022-10-31T10:28:19;21.40;;;10.63;;
37451;SDS011;23314;51.114;6.900;2022-10-31T10:30:53;16.87;;;9.97;;
37451;SDS011;23314;51.114;6.900;2022-10-31T10:33:27;24.30;;;10.00;;
37451;SDS011;23314;51.114;6.900;2022-10-31T10:36:31;13.17;;;9.57;;
37451;SDS011;23314;51.114;6.900;2022-10-31T10:39:04;18.77;;;9.73;;
37451;SDS011;23314;51.114;6.900;2022-10-31T10:41:38;19.77;;;9.73;;
37451;SDS011;23314;51.114;6.900;2022-10-31T10:44:09;18.93;;;9.93;;
37451;SDS011;23314;51.114;6.900;2022-10-31T10:46:43;19.23;;;9.53;;
37451;SDS011;23314;51.114;6.900;2022-10-31T10:49:43;19.20;;;9.70;;
37451;SDS011;23314;51.114;6.900;2022-10-31T10:52:20;17.80;;;9.60;;
37451;SDS011;23314;51.114;6.900;2022-10-31T10:57:45;14.97;;;8.50;;
37451;SDS011;23314;51.114;6.900;2022-10-31T11:00:26;15.80;;;8.27;;
37451;SDS011;23314;51.114;6.900;2022-10-31T11:02:53;14.38;;;8.40;;
37451;SDS011;23314;51.114;6.900;2022-10-31T11:05:33;20.67;;;8.45;;
37451;SDS011;23314;51.114;6.900;2022-10-31T11:08:02;15.93;;;7.88;;
37451;SDS011;23314;51.114;6.900;2022-10-31T11:10:28;17.42;;;7.90;;
37451;SDS011;23314;51.114;6.900;2022-10-31T11:12:59;14.05;;;7.57;;
37451;SDS011;23314;51.114;6.900;2022-10-31T11:15:27;12.45;;;7.70;;
37451;SDS011;23314;51.114;6.900;2022-10-31T11:17:56;13.48;;;7.18;;
37451;SDS011;23314;51.114;6.900;2022-10-31T11:23:13;18.25;;;6.75;;
37451;SDS011;23314;51.114;6.900;2022-10-31T11:25:51;13.00;;;7.03;;
37451;SDS011;23314;51.114;6.900;2022-10-31T11:28:20;13.82;;;6.40;;
37451;SDS011;23314;51.114;6.900;2022-10-31T11:30:46;12.68;;;6.35;;
37451;SDS011;23314;51.114;6.900;2022-10-31T11:36:25;9.00;;;5.32;;
37451;SDS011;23314;51.114;6.900;2022-10-31T11:38:52;10.38;;;5.13;;
37451;SDS011;23314;51.114;6.900;2022-10-31T11:41:19;9.88;;;5.47;;
37451;SDS011;23314;51.114;6.900;2022-10-31T11:43:54;11.45;;;5.18;;
37451;SDS011;23314;51.114;6.900;2022-10-31T11:46:31;9.95;;;5.57;;
37451;SDS011;23314;51.114;6.900;2022-10-31T11:49:00;6.78;;;5.25;;
37451;SDS011;23314;51.114;6.900;2022-10-31T11:51:28;11.50;;;4.82;;
37451;SDS011;23314;51.114;6.900;2022-10-31T11:53:57;8.43;;;5.05;;
37451;SDS011;23314;51.114;6.900;2022-10-31T11:56:43;14.35;;;5.50;;
37451;SDS011;23314;51.114;6.900;2022-10-31T11:59:21;18.85;;;4.93;;
37451;SDS011;23314;51.114;6.900;2022-10-31T12:01:53;12.05;;;5.65;;
37451;SDS011;23314;51.114;6.900;2022-10-31T12:04:19;10.65;;;5.22;;
37451;SDS011;23314;51.114;6.900;2022-10-31T12:06:52;13.15;;;5.60;;
37451;SDS011;23314;51.114;6.900;2022-10-31T12:09:22;13.38;;;5.53;;
37451;SDS011;23314;51.114;6.900;2022-10-31T12:12:00;12.20;;;4.90;;
37451;SDS011;23314;51.114;6.900;2022-10-31T12:17:21;19.17;;;5.55;;
37451;SDS011;23314;51.114;6.900;2022-10-31T12:20:04;14.07;;;5.25;;
37451;SDS011;23314;51.114;6.900;2022-10-31T12:25:26;13.80;;;4.93;;
37451;SDS011;23314;51.114;6.900;2022-10-31T12:28:02;13.13;;;5.35;;
37451;SDS011;23314;51.114;6.900;2022-10-31T12:30:59;13.73;;;4.95;;
37451;SDS011;23314;51.114;6.900;2022-10-31T12:33:40;12.80;;;5.13;;
37451;SDS011;23314;51.114;6.900;2022-10-31T12:41:44;11.32;;;4.53;;
37451;SDS011;23314;51.114;6.900;2022-10-31T12:47:58;10.25;;;4.90;;
37451;SDS011;23314;51.114;6.900;2022-10-31T12:50:37;13.57;;;5.05;;
37451;SDS011;23314;51.114;6.900;2022-10-31T12:59:07;13.80;;;4.68;;
37451;SDS011;23314;51.114;6.900;2022-10-31T13:02:02;7.45;;;4.72;;
37451;SDS011;23314;51.114;6.900;2022-10-31T13:04:37;7.93;;;4.18;;
37451;SDS011;23314;51.114;6.900;2022-10-31T13:07:13;11.90;;;4.70;;
37451;SDS011;23314;51.114;6.900;2022-10-31T13:09:49;7.95;;;4.60;;
37451;SDS011;23314;51.114;6.900;2022-10-31T13:12:24;11.13;;;4.20;;
37451;SDS011;23314;51.114;6.900;2022-10-31T13:14:59;13.90;;;4.50;;
37451;SDS011;23314;51.114;6.900;2022-10-31T13:17:48;8.50;;;4.55;;
37451;SDS011;23314;51.114;6.900;2022-10-31T13:20:33;22.05;;;5.55;;
37451;SDS011;23314;51.114;6.900;2022-10-31T13:23:12;11.18;;;4.30;;
37451;SDS011;23314;51.114;6.900;2022-10-31T13:25:54;9.88;;;4.38;;
37451;SDS011;23314;51.114;6.900;2022-10-31T13:31:05;10.82;;;4.30;;
37451;SDS011;23314;51.114;6.900;2022-10-31T13:33:32;11.60;;;4.18;;
37451;SDS011;23314;51.114;6.900;2022-10-31T13:38:38;13.45;;;4.35;;
37451;SDS011;23314;51.114;6.900;2022-10-31T13:41:14;13.10;;;4.50;;
37451;SDS011;23314;51.114;6.900;2022-10-31T13:46:39;12.45;;;4.00;;
37451;SDS011;23314;51.114;6.900;2022-10-31T13:49:24;8.15;;;4.13;;
37451;SDS011;23314;51.114;6.900;2022-10-31T13:51:53;10.45;;;4.10;;
37451;SDS011;23314;51.114;6.900;2022-10-31T13:54:33;12.88;;;4.72;;
37451;SDS011;23314;51.114;6.900;2022-10-31T13:57:00;9.15;;;4.60;;
37451;SDS011;23314;51.114;6.900;2022-10-31T13:59:26;9.23;;;4.22;;
37451;SDS011;23314;51.114;6.900;2022-10-31T14:01:58;10.13;;;4.63;;
37451;SDS011;23314;51.114;6.900;2022-10-31T14:07:21;11.98;;;4.30;;
37451;SDS011;23314;51.114;6.900;2022-10-31T14:12:29;7.95;;;4.28;;
37451;SDS011;23314;51.114;6.900;2022-10-31T14:15:00;12.63;;;4.45;;
37451;SDS011;23314;51.114;6.900;2022-10-31T14:17:31;17.38;;;4.95;;
37451;SDS011;23314;51.114;6.900;2022-10-31T14:22:35;11.63;;;4.35;;
37451;SDS011;23314;51.114;6.900;2022-10-31T14:25:24;10.68;;;4.15;;
37451;SDS011;23314;51.114;6.900;2022-10-31T14:28:00;12.30;;;4.05;;
37451;SDS011;23314;51.114;6.900;2022-10-31T14:30:53;10.35;;;4.38;;
37451;SDS011;23314;51.114;6.900;2022-10-31T14:33:21;9.38;;;3.78;;
37451;SDS011;23314;51.114;6.900;2022-10-31T14:41:16;10.52;;;4.25;;
37451;SDS011;23314;51.114;6.900;2022-10-31T14:43:55;7.72;;;3.67;;
37451;SDS011;23314;51.114;6.900;2022-10-31T14:46:42;12.82;;;4.15;;
37451;SDS011;23314;51.114;6.900;2022-10-31T14:49:30;10.48;;;4.13;;
37451;SDS011;23314;51.114;6.900;2022-10-31T14:51:59;12.65;;;4.25;;
37451;SDS011;23314;51.114;6.900;2022-10-31T14:54:27;8.77;;;4.50;;
37451;SDS011;23314;51.114;6.900;2022-10-31T14:57:03;10.95;;;4.80;;
37451;SDS011;23314;51.114;6.900;2022-10-31T14:59:33;6.05;;;3.70;;
37451;SDS011;23314;51.114;6.900;2022-10-31T15:02:16;14.00;;;4.53;;
37451;SDS011;23314;51.114;6.900;2022-10-31T15:04:49;6.22;;;3.97;;
37451;SDS011;23314;51.114;6.900;2022-10-31T15:10:05;9.93;;;4.05;;
37451;SDS011;23314;51.114;6.900;2022-10-31T15:12:44;9.07;;;3.97;;
37451;SDS011;23314;51.114;6.900;2022-10-31T15:15:13;11.93;;;4.20;;
37451;SDS011;23314;51.114;6.900;2022-10-31T15:17:54;7.03;;;4.07;;
37451;SDS011;23314;51.114;6.900;2022-10-31T15:20:27;11.02;;;4.20;;
37451;SDS011;23314;51.114;6.900;2022-10-31T15:22:55;9.48;;;3.83;;
37451;SDS011;23314;51.114;6.900;2022-10-31T15:25:23;13.48;;;4.63;;
37451;SDS011;23314;51.114;6.900;2022-10-31T15:27:50;10.88;;;4.00;;
37451;SDS011;23314;51.114;6.900;2022-10-31T15:30:25;10.30;;;3.90;;
37451;SDS011;23314;51.114;6.900;2022-10-31T15:32:52;6.65;;;3.85;;
37451;SDS011;23314;51.114;6.900;2022-10-31T15:35:28;9.27;;;3.70;;
37451;SDS011;23314;51.114;6.900;2022-10-31T15:37:55;10.70;;;4.32;;
37451;SDS011;23314;51.114;6.900;2022-10-31T15:40:24;12.13;;;4.50;;
37451;SDS011;23314;51.114;6.900;2022-10-31T15:43:00;7.55;;;3.70;;
37451;SDS011;23314;51.114;6.900;2022-10-31T15:45:30;13.70;;;4.25;;
37451;SDS011;23314;51.114;6.900;2022-10-31T15:47:58;12.85;;;4.93;;
37451;SDS011;23314;51.114;6.900;2022-10-31T15:50:37;8.57;;;3.90;;
37451;SDS011;23314;51.114;6.900;2022-10-31T15:53:05;12.57;;;4.78;;
37451;SDS011;23314;51.114;6.900;2022-10-31T15:58:24;8.55;;;3.80;;
37451;SDS011;23314;51.114;6.900;2022-10-31T16:01:04;8.05;;;3.90;;
37451;SDS011;23314;51.114;6.900;2022-10-31T16:03:32;7.22;;;3.70;;
37451;SDS011;23314;51.114;6.900;2022-10-31T16:06:04;10.15;;;3.80;;
37451;SDS011;23314;51.114;6.900;2022-10-31T16:11:13;10.82;;;3.92;;
37451;SDS011;23314;51.114;6.900;2022-10-31T16:14:21;8.10;;;3.75;;
37451;SDS011;23314;51.114;6.900;2022-10-31T16:16:50;10.73;;;4.05;;
37451;SDS011;23314;51.114;6.900;2022-10-31T16:21:46;8.70;;;3.60;;
37451;SDS011;23314;51.114;6.900;2022-10-31T16:24:27;9.07;;;4.22;;
37451;SDS011;23314;51.114;6.900;2022-10-31T16:27:04;11.95;;;4.40;;
37451;SDS011;23314;51.114;6.900;2022-10-31T16:29:51;8.63;;;3.97;;
37451;SDS011;23314;51.114;6.900;2022-10-31T16:32:28;9.25;;;3.50;;
37451;SDS011;23314;51.114;6.900;2022-10-31T16:37:36;9.60;;;3.53;;
37451;SDS011;23314;51.114;6.900;2022-10-31T16:40:03;14.65;;;4.35;;
37451;SDS011;23314;51.114;6.900;2022-10-31T16:42:28;14.80;;;4.03;;
37451;SDS011;23314;51.114;6.900;2022-10-31T16:44:54;15.30;;;4.28;;
37451;SDS011;23314;51.114;6.900;2022-10-31T16:47:20;6.88;;;3.78;;
37451;SDS011;23314;51.114;6.900;2022-10-31T16:49:47;10.13;;;4.30;;